createdAt,value
2018-09-22T00:00:01.525Z,12.45
2018-09-22T00:00:32.631Z,12.93
2018-09-22T00:01:03.741Z,12.25
2018-09-22T00:01:34.940Z,12.80
2018-09-22T00:02:06.154Z,12.90
2018-09-22T00:02:37.260Z,13.00
2018-09-22T00:03:08.383Z,13.58
2018-09-22T00:03:39.585Z,12.88
2018-09-22T00:04:10.753Z,12.90
2018-09-22T00:04:41.878Z,13.10
2018-09-22T00:05:13.006Z,13.60
2018-09-22T00:05:44.123Z,13.18
2018-09-22T00:06:15.279Z,13.05
2018-09-22T00:06:46.393Z,13.78
2018-09-22T00:07:17.526Z,13.58
2018-09-22T00:07:48.636Z,13.90
2018-09-22T00:08:19.764Z,12.95
2018-09-22T00:08:50.868Z,13.38
2018-09-22T00:09:22.028Z,13.90
2018-09-22T00:09:53.136Z,13.25
2018-09-22T00:10:24.243Z,13.58
2018-09-22T00:10:55.359Z,13.28
2018-09-22T00:11:26.528Z,13.20
2018-09-22T00:11:57.722Z,12.80
2018-09-22T00:12:28.861Z,13.35
2018-09-22T00:13:00.043Z,14.10
2018-09-22T00:13:31.191Z,13.93
2018-09-22T00:14:02.343Z,14.28
2018-09-22T00:14:33.470Z,13.55
2018-09-22T00:15:04.636Z,13.80
2018-09-22T00:15:35.739Z,13.90
2018-09-22T00:16:06.902Z,13.55
2018-09-22T00:16:38.074Z,12.95
2018-09-22T00:17:09.176Z,14.05
2018-09-22T00:17:40.306Z,13.50
2018-09-22T00:18:11.405Z,13.28
2018-09-22T00:18:42.507Z,13.85
2018-09-22T00:19:13.616Z,13.03
2018-09-22T00:19:44.721Z,14.43
2018-09-22T00:20:15.892Z,12.95
2018-09-22T00:20:46.999Z,13.70
2018-09-22T00:21:18.139Z,13.60
2018-09-22T00:21:49.366Z,13.78
2018-09-22T00:22:20.473Z,13.72
2018-09-22T00:22:51.629Z,13.70
2018-09-22T00:23:22.804Z,14.35
2018-09-22T00:23:53.899Z,13.90
2018-09-22T00:24:25.030Z,14.30
2018-09-22T00:24:56.129Z,13.85
2018-09-22T00:25:27.231Z,13.28
2018-09-22T00:25:58.394Z,13.43
2018-09-22T00:26:29.503Z,13.13
2018-09-22T00:27:00.630Z,13.35
2018-09-22T00:27:31.739Z,14.05
2018-09-22T00:28:02.914Z,13.43
2018-09-22T00:28:34.044Z,12.60
2018-09-22T00:29:05.240Z,13.48
2018-09-22T00:29:36.376Z,13.83
2018-09-22T00:30:07.539Z,13.03
2018-09-22T00:30:38.659Z,13.13
2018-09-22T00:31:09.778Z,13.35
2018-09-22T00:31:40.888Z,12.63
2018-09-22T00:32:11.991Z,12.40
2018-09-22T00:32:43.110Z,12.80
2018-09-22T00:33:14.269Z,12.80
2018-09-22T00:33:45.379Z,12.37
2018-09-22T00:34:16.597Z,12.60
2018-09-22T00:34:47.702Z,12.37
2018-09-22T00:35:18.815Z,12.05
2018-09-22T00:35:49.915Z,12.53
2018-09-22T00:36:21.085Z,12.68
2018-09-22T00:36:52.301Z,11.12
2018-09-22T00:37:23.427Z,11.90
2018-09-22T00:37:54.547Z,12.13
2018-09-22T00:38:25.712Z,13.13
2018-09-22T00:38:56.846Z,12.33
2018-09-22T00:39:28.079Z,12.07
2018-09-22T00:39:59.254Z,12.60
2018-09-22T00:40:30.370Z,12.13
2018-09-22T00:41:01.474Z,12.05
2018-09-22T00:41:32.633Z,12.33
2018-09-22T00:42:03.861Z,12.90
2018-09-22T00:42:35.069Z,12.68
2018-09-22T00:43:06.179Z,12.80
2018-09-22T00:43:37.302Z,11.63
2018-09-22T00:44:08.395Z,12.35
2018-09-22T00:44:39.484Z,12.13
2018-09-22T00:45:10.638Z,13.08
2018-09-22T00:45:41.800Z,13.05
2018-09-22T00:46:12.908Z,13.18
2018-09-22T00:46:44.062Z,12.88
2018-09-22T00:47:15.172Z,12.78
2018-09-22T00:47:46.271Z,12.50
2018-09-22T00:48:17.435Z,12.60
2018-09-22T00:48:48.620Z,13.18
2018-09-22T00:49:19.784Z,12.95
2018-09-22T00:49:51.044Z,12.20
2018-09-22T00:50:22.163Z,12.75
2018-09-22T00:50:53.266Z,13.32
2018-09-22T00:51:24.391Z,13.60
2018-09-22T00:51:55.517Z,12.78
2018-09-22T00:52:26.637Z,12.60
2018-09-22T00:52:57.780Z,11.40
2018-09-22T00:53:28.888Z,12.30
2018-09-22T00:53:59.992Z,11.90
2018-09-22T00:54:31.104Z,11.53
2018-09-22T00:55:02.304Z,10.98
2018-09-22T00:55:33.431Z,11.35
2018-09-22T00:56:04.602Z,11.08
2018-09-22T00:56:35.772Z,11.55
2018-09-22T00:57:06.928Z,11.63
2018-09-22T00:57:38.035Z,9.65
2018-09-22T00:58:09.154Z,9.50
2018-09-22T00:58:40.259Z,10.48
2018-09-22T00:59:11.437Z,9.95
2018-09-22T00:59:42.551Z,10.93
2018-09-22T01:00:13.687Z,9.45
2018-09-22T01:00:44.802Z,9.35
2018-09-22T01:01:16.024Z,10.32
2018-09-22T01:01:47.131Z,9.68
2018-09-22T01:02:18.289Z,9.83
2018-09-22T01:02:49.409Z,10.50
2018-09-22T01:03:20.589Z,9.78
2018-09-22T01:03:51.744Z,10.50
2018-09-22T01:04:22.864Z,10.18
2018-09-22T01:04:53.983Z,10.38
2018-09-22T01:05:25.149Z,9.90
2018-09-22T01:05:56.346Z,10.10
2018-09-22T01:06:27.464Z,9.88
2018-09-22T01:06:58.576Z,9.80
2018-09-22T01:07:29.694Z,9.83
2018-09-22T01:08:00.849Z,10.38
2018-09-22T01:08:31.987Z,10.28
2018-09-22T01:09:03.132Z,10.32
2018-09-22T01:09:34.268Z,10.72
2018-09-22T01:10:05.367Z,10.30
2018-09-22T01:10:36.540Z,10.03
2018-09-22T01:11:07.679Z,10.13
2018-09-22T01:11:38.782Z,10.93
2018-09-22T01:12:09.893Z,11.35
2018-09-22T01:12:41.011Z,10.88
2018-09-22T01:13:12.107Z,10.23
2018-09-22T01:13:43.210Z,11.22
2018-09-22T01:14:14.324Z,10.38
2018-09-22T01:14:45.521Z,10.20
2018-09-22T01:15:16.665Z,10.55
2018-09-22T01:15:47.795Z,10.80
2018-09-22T01:16:18.943Z,10.60
2018-09-22T01:16:50.055Z,10.95
2018-09-22T01:17:21.159Z,10.48
2018-09-22T01:17:52.321Z,10.80
2018-09-22T01:18:23.459Z,10.78
2018-09-22T01:18:54.632Z,9.80
2018-09-22T01:19:25.784Z,10.03
2018-09-22T01:19:56.947Z,11.08
2018-09-22T01:20:28.117Z,10.30
2018-09-22T01:20:59.220Z,10.00
2018-09-22T01:21:30.341Z,9.35
2018-09-22T01:22:01.474Z,10.38
2018-09-22T01:22:32.586Z,10.25
2018-09-22T01:23:03.689Z,9.65
2018-09-22T01:23:34.864Z,9.58
2018-09-22T01:24:05.991Z,9.95
2018-09-22T01:24:37.728Z,9.95
2018-09-22T01:25:08.866Z,10.13
2018-09-22T01:25:40.012Z,10.93
2018-09-22T01:26:11.284Z,9.85
2018-09-22T01:26:42.469Z,9.63
2018-09-22T01:27:13.603Z,9.58
2018-09-22T01:27:44.754Z,10.15
2018-09-22T01:28:15.911Z,9.55
2018-09-22T01:28:47.217Z,10.63
2018-09-22T01:29:18.385Z,9.60
2018-09-22T01:29:49.502Z,10.88
2018-09-22T01:30:20.608Z,9.55
2018-09-22T01:30:51.719Z,9.60
2018-09-22T01:31:22.827Z,9.98
2018-09-22T01:31:53.933Z,9.40
2018-09-22T01:32:25.039Z,10.40
2018-09-22T01:32:56.192Z,10.50
2018-09-22T01:33:27.361Z,10.20
2018-09-22T01:33:58.721Z,9.93
2018-09-22T01:34:29.855Z,9.68
2018-09-22T01:35:01.333Z,9.40
2018-09-22T01:35:32.448Z,9.28
2018-09-22T01:36:03.605Z,9.18
2018-09-22T01:36:34.759Z,10.03
2018-09-22T01:37:05.865Z,10.00
2018-09-22T01:37:37.003Z,9.38
2018-09-22T01:38:08.100Z,9.40
2018-09-22T01:38:39.259Z,10.18
2018-09-22T01:39:10.412Z,9.90
2018-09-22T01:39:41.518Z,9.38
2018-09-22T01:40:12.624Z,9.35
2018-09-22T01:40:43.792Z,8.98
2018-09-22T01:41:14.908Z,9.45
2018-09-22T01:41:46.012Z,9.30
2018-09-22T01:42:17.177Z,9.08
2018-09-22T01:42:48.343Z,9.13
2018-09-22T01:43:19.458Z,8.90
2018-09-22T01:43:50.554Z,9.10
2018-09-22T01:44:21.746Z,9.23
2018-09-22T01:44:52.883Z,8.93
2018-09-22T01:45:23.995Z,8.98
2018-09-22T01:45:55.169Z,8.58
2018-09-22T01:46:26.365Z,9.20
2018-09-22T01:46:57.467Z,9.75
2018-09-22T01:47:28.571Z,9.15
2018-09-22T01:47:59.701Z,9.35
2018-09-22T01:48:30.830Z,9.48
2018-09-22T01:49:01.996Z,8.65
2018-09-22T01:49:33.164Z,8.75
2018-09-22T01:50:04.325Z,8.70
2018-09-22T01:50:35.478Z,8.95
2018-09-22T01:51:06.638Z,8.65
2018-09-22T01:51:37.770Z,8.70
2018-09-22T01:52:08.925Z,9.08
2018-09-22T01:52:40.059Z,9.08
2018-09-22T01:53:11.208Z,9.10
2018-09-22T01:53:42.313Z,9.05
2018-09-22T01:54:13.468Z,9.05
2018-09-22T01:54:44.603Z,9.80
2018-09-22T01:55:15.797Z,8.93
2018-09-22T01:55:46.937Z,8.78
2018-09-22T01:56:18.035Z,9.28
2018-09-22T01:56:49.132Z,8.55
2018-09-22T01:57:20.226Z,9.25
2018-09-22T01:57:51.441Z,9.38
2018-09-22T01:58:22.551Z,9.50
2018-09-22T01:58:53.704Z,9.35
2018-09-22T01:59:24.872Z,9.13
2018-09-22T01:59:55.977Z,9.03
2018-09-22T02:00:27.126Z,9.43
2018-09-22T02:00:58.307Z,9.55
2018-09-22T02:01:29.407Z,9.15
2018-09-22T02:02:00.605Z,9.45
2018-09-22T02:02:31.730Z,9.23
2018-09-22T02:03:02.827Z,9.58
2018-09-22T02:03:33.945Z,9.90
2018-09-22T02:04:05.102Z,9.58
2018-09-22T02:04:36.223Z,9.48
2018-09-22T02:05:07.332Z,9.23
2018-09-22T02:05:38.469Z,9.45
2018-09-22T02:06:09.582Z,9.93
2018-09-22T02:06:40.714Z,9.68
2018-09-22T02:07:11.937Z,9.73
2018-09-22T02:07:43.037Z,10.28
2018-09-22T02:08:14.234Z,9.88
2018-09-22T02:08:45.352Z,9.70
2018-09-22T02:09:16.514Z,9.75
2018-09-22T02:09:47.610Z,9.50
2018-09-22T02:10:18.710Z,9.58
2018-09-22T02:10:49.806Z,10.08
2018-09-22T02:11:20.905Z,10.18
2018-09-22T02:11:52.037Z,9.55
2018-09-22T02:12:23.138Z,10.43
2018-09-22T02:12:54.283Z,9.70
2018-09-22T02:13:25.392Z,9.73
2018-09-22T02:13:56.495Z,9.65
2018-09-22T02:14:27.601Z,9.80
2018-09-22T02:14:58.791Z,10.08
2018-09-22T02:15:29.896Z,10.25
2018-09-22T02:16:01.000Z,9.95
2018-09-22T02:16:32.092Z,9.73
2018-09-22T02:17:03.192Z,10.70
2018-09-22T02:17:34.294Z,10.20
2018-09-22T02:18:05.395Z,9.65
2018-09-22T02:18:36.515Z,10.25
2018-09-22T02:19:07.631Z,10.35
2018-09-22T02:19:38.761Z,10.05
2018-09-22T02:20:09.909Z,10.13
2018-09-22T02:20:41.035Z,9.88
2018-09-22T02:21:12.131Z,10.03
2018-09-22T02:21:43.233Z,10.50
2018-09-22T02:22:14.334Z,10.68
2018-09-22T02:22:45.435Z,9.98
2018-09-22T02:23:16.534Z,10.30
2018-09-22T02:23:47.631Z,10.55
2018-09-22T02:24:18.735Z,10.05
2018-09-22T02:24:49.830Z,10.00
2018-09-22T02:25:20.979Z,10.38
2018-09-22T02:25:52.089Z,10.98
2018-09-22T02:26:23.226Z,10.50
2018-09-22T02:26:54.346Z,10.05
2018-09-22T02:27:25.438Z,10.20
2018-09-22T02:27:56.562Z,10.72
2018-09-22T02:28:27.661Z,11.03
2018-09-22T02:28:58.745Z,9.98
2018-09-22T02:29:29.867Z,11.15
2018-09-22T02:30:00.995Z,10.55
2018-09-22T02:30:32.136Z,10.63
2018-09-22T02:31:03.248Z,11.10
2018-09-22T02:31:34.345Z,10.90
2018-09-22T02:32:05.513Z,10.82
2018-09-22T02:32:36.650Z,10.68
2018-09-22T02:33:07.752Z,11.80
2018-09-22T02:33:38.970Z,10.78
2018-09-22T02:34:10.102Z,11.53
2018-09-22T02:34:41.207Z,10.43
2018-09-22T02:35:12.314Z,10.00
2018-09-22T02:35:43.459Z,10.88
2018-09-22T02:36:14.574Z,10.85
2018-09-22T02:36:45.740Z,11.38
2018-09-22T02:37:16.851Z,10.58
2018-09-22T02:37:47.956Z,10.88
2018-09-22T02:38:19.090Z,11.03
2018-09-22T02:38:50.258Z,11.25
2018-09-22T02:39:21.358Z,11.03
2018-09-22T02:39:52.459Z,10.70
2018-09-22T02:40:23.560Z,11.85
2018-09-22T02:40:54.702Z,11.30
2018-09-22T02:41:25.872Z,11.45
2018-09-22T02:41:56.974Z,11.15
2018-09-22T02:42:28.076Z,10.43
2018-09-22T02:42:59.187Z,10.63
2018-09-22T02:43:30.355Z,10.85
2018-09-22T02:44:01.471Z,10.25
2018-09-22T02:44:32.581Z,10.60
2018-09-22T02:45:03.707Z,10.93
2018-09-22T02:45:34.813Z,11.08
2018-09-22T02:46:05.962Z,10.05
2018-09-22T02:46:37.072Z,10.80
2018-09-22T02:47:08.167Z,10.70
2018-09-22T02:47:39.272Z,10.70
2018-09-22T02:48:10.372Z,9.85
2018-09-22T02:48:41.472Z,10.00
2018-09-22T02:49:12.571Z,9.68
2018-09-22T02:49:43.721Z,10.93
2018-09-22T02:50:14.897Z,10.25
2018-09-22T02:50:46.013Z,10.28
2018-09-22T02:51:17.178Z,10.48
2018-09-22T02:51:48.342Z,10.30
2018-09-22T02:52:19.462Z,10.05
2018-09-22T02:52:50.572Z,10.50
2018-09-22T02:53:21.687Z,10.32
2018-09-22T02:53:52.778Z,10.15
2018-09-22T02:54:23.907Z,10.50
2018-09-22T02:54:55.013Z,9.78
2018-09-22T02:55:26.183Z,10.55
2018-09-22T02:55:57.293Z,10.43
2018-09-22T02:56:28.391Z,9.98
2018-09-22T02:56:59.604Z,10.53
2018-09-22T02:57:30.661Z,9.48
2018-09-22T02:58:01.759Z,10.40
2018-09-22T02:58:32.854Z,9.63
2018-09-22T02:59:03.985Z,9.60
2018-09-22T02:59:35.082Z,10.00
2018-09-22T03:00:06.196Z,9.28
2018-09-22T03:00:37.291Z,9.25
2018-09-22T03:01:08.448Z,9.98
2018-09-22T03:01:39.615Z,9.60
2018-09-22T03:02:10.742Z,10.58
2018-09-22T03:02:41.843Z,9.78
2018-09-22T03:03:12.942Z,9.25
2018-09-22T03:03:44.062Z,9.28
2018-09-22T03:04:15.161Z,9.15
2018-09-22T03:04:46.275Z,9.10
2018-09-22T03:05:17.379Z,9.03
2018-09-22T03:05:48.491Z,9.10
2018-09-22T03:06:19.612Z,9.58
2018-09-22T03:06:50.793Z,9.43
2018-09-22T03:07:21.883Z,9.50
2018-09-22T03:07:53.041Z,9.28
2018-09-22T03:08:24.148Z,9.35
2018-09-22T03:08:55.278Z,9.83
2018-09-22T03:09:26.375Z,8.83
2018-09-22T03:09:57.490Z,9.08
2018-09-22T03:10:28.594Z,8.95
2018-09-22T03:10:59.696Z,8.93
2018-09-22T03:11:30.804Z,9.13
2018-09-22T03:12:01.954Z,8.95
2018-09-22T03:12:33.060Z,8.55
2018-09-22T03:13:04.171Z,8.68
2018-09-22T03:13:35.268Z,8.85
2018-09-22T03:14:06.426Z,8.20
2018-09-22T03:14:37.556Z,8.40
2018-09-22T03:15:09.002Z,8.40
2018-09-22T03:15:39.790Z,8.70
2018-09-22T03:16:10.891Z,8.68
2018-09-22T03:16:42.004Z,9.40
2018-09-22T03:17:13.200Z,8.50
2018-09-22T03:17:44.316Z,8.93
2018-09-22T03:18:15.420Z,9.15
2018-09-22T03:18:46.523Z,9.33
2018-09-22T03:19:17.699Z,8.45
2018-09-22T03:19:48.807Z,8.63
2018-09-22T03:20:19.936Z,8.30
2018-09-22T03:20:51.095Z,8.53
2018-09-22T03:21:22.218Z,8.68
2018-09-22T03:21:53.318Z,8.55
2018-09-22T03:22:24.468Z,8.58
2018-09-22T03:22:55.585Z,8.53
2018-09-22T03:23:26.687Z,9.38
2018-09-22T03:23:57.792Z,9.20
2018-09-22T03:24:28.965Z,8.78
2018-09-22T03:25:00.110Z,9.00
2018-09-22T03:25:31.216Z,7.62
2018-09-22T03:26:02.321Z,7.95
2018-09-22T03:26:33.419Z,8.25
2018-09-22T03:27:04.584Z,7.67
2018-09-22T03:27:35.678Z,7.50
2018-09-22T03:28:06.825Z,7.90
2018-09-22T03:28:37.926Z,7.83
2018-09-22T03:29:09.027Z,7.58
2018-09-22T03:29:40.189Z,7.62
2018-09-22T03:30:11.407Z,7.85
2018-09-22T03:30:42.519Z,8.03
2018-09-22T03:31:13.631Z,7.85
2018-09-22T03:31:44.722Z,7.70
2018-09-22T03:32:15.836Z,7.33
2018-09-22T03:32:46.974Z,7.17
2018-09-22T03:33:18.097Z,8.05
2018-09-22T03:33:49.184Z,8.08
2018-09-22T03:34:20.266Z,7.53
2018-09-22T03:34:51.437Z,7.78
2018-09-22T03:35:22.535Z,7.70
2018-09-22T03:35:53.635Z,7.45
2018-09-22T03:36:24.779Z,7.53
2018-09-22T03:36:55.922Z,7.78
2018-09-22T03:37:27.017Z,7.75
2018-09-22T03:37:58.126Z,7.75
2018-09-22T03:38:29.266Z,7.28
2018-09-22T03:39:00.366Z,7.35
2018-09-22T03:39:31.469Z,7.62
2018-09-22T03:40:02.562Z,7.80
2018-09-22T03:40:33.717Z,7.87
2018-09-22T03:41:04.891Z,8.25
2018-09-22T03:41:36.055Z,8.05
2018-09-22T03:42:07.157Z,7.70
2018-09-22T03:42:38.284Z,7.58
2018-09-22T03:43:09.401Z,8.13
2018-09-22T03:43:40.541Z,7.97
2018-09-22T03:44:11.650Z,8.13
2018-09-22T03:44:42.756Z,7.65
2018-09-22T03:45:13.899Z,8.00
2018-09-22T03:45:45.248Z,7.67
2018-09-22T03:46:16.361Z,7.15
2018-09-22T03:46:47.454Z,8.58
2018-09-22T03:47:18.562Z,8.05
2018-09-22T03:47:49.724Z,8.13
2018-09-22T03:48:20.931Z,8.20
2018-09-22T03:48:52.065Z,7.50
2018-09-22T03:49:23.231Z,7.53
2018-09-22T03:49:54.336Z,7.85
2018-09-22T03:50:25.441Z,8.13
2018-09-22T03:50:56.527Z,7.50
2018-09-22T03:51:27.642Z,7.67
2018-09-22T03:51:58.768Z,7.60
2018-09-22T03:52:29.874Z,8.08
2018-09-22T03:53:01.035Z,7.85
2018-09-22T03:53:32.199Z,7.83
2018-09-22T03:54:03.350Z,7.50
2018-09-22T03:54:34.514Z,7.45
2018-09-22T03:55:05.614Z,7.87
2018-09-22T03:55:36.724Z,7.78
2018-09-22T03:56:07.881Z,7.92
2018-09-22T03:56:39.014Z,7.30
2018-09-22T03:57:10.146Z,7.90
2018-09-22T03:57:41.239Z,7.58
2018-09-22T03:58:12.337Z,8.38
2018-09-22T03:58:43.430Z,7.78
2018-09-22T03:59:14.575Z,8.10
2018-09-22T03:59:45.686Z,8.20
2018-09-22T04:00:16.783Z,7.58
2018-09-22T04:00:47.926Z,7.72
2018-09-22T04:01:19.027Z,7.83
2018-09-22T04:01:50.167Z,7.42
2018-09-22T04:02:21.330Z,8.05
2018-09-22T04:02:52.421Z,8.05
2018-09-22T04:03:23.524Z,8.03
2018-09-22T04:03:54.616Z,8.13
2018-09-22T04:04:25.719Z,8.25
2018-09-22T04:04:56.834Z,8.03
2018-09-22T04:05:27.980Z,8.63
2018-09-22T04:05:59.115Z,8.38
2018-09-22T04:06:30.341Z,7.90
2018-09-22T04:07:01.459Z,7.70
2018-09-22T04:07:32.613Z,8.80
2018-09-22T04:08:03.714Z,8.08
2018-09-22T04:08:34.836Z,8.10
2018-09-22T04:09:05.931Z,8.05
2018-09-22T04:09:37.055Z,7.85
2018-09-22T04:10:08.156Z,7.83
2018-09-22T04:10:39.261Z,8.23
2018-09-22T04:11:10.434Z,8.08
2018-09-22T04:11:41.531Z,7.87
2018-09-22T04:12:12.634Z,8.25
2018-09-22T04:12:43.772Z,8.43
2018-09-22T04:13:14.876Z,8.85
2018-09-22T04:13:46.036Z,7.92
2018-09-22T04:14:17.140Z,8.48
2018-09-22T04:14:48.243Z,8.18
2018-09-22T04:15:19.394Z,7.97
2018-09-22T04:15:50.516Z,8.08
2018-09-22T04:16:21.612Z,8.35
2018-09-22T04:16:52.701Z,7.92
2018-09-22T04:17:23.795Z,8.05
2018-09-22T04:17:54.922Z,7.97
2018-09-22T04:18:26.082Z,8.75
2018-09-22T04:18:57.193Z,8.30
2018-09-22T04:19:28.287Z,8.15
2018-09-22T04:19:59.393Z,7.95
2018-09-22T04:20:30.595Z,8.53
2018-09-22T04:21:01.714Z,7.87
2018-09-22T04:21:32.869Z,7.95
2018-09-22T04:22:03.974Z,8.30
2018-09-22T04:22:35.067Z,7.92
2018-09-22T04:23:06.157Z,8.53
2018-09-22T04:23:37.301Z,8.53
2018-09-22T04:24:08.447Z,8.25
2018-09-22T04:24:39.616Z,7.97
2018-09-22T04:25:10.718Z,7.42
2018-09-22T04:25:41.832Z,8.33
2018-09-22T04:26:13.004Z,8.80
2018-09-22T04:26:44.124Z,7.78
2018-09-22T04:27:15.239Z,8.78
2018-09-22T04:27:46.412Z,7.28
2018-09-22T04:28:17.511Z,8.45
2018-09-22T04:28:48.721Z,7.90
2018-09-22T04:29:19.823Z,7.95
2018-09-22T04:29:50.988Z,8.10
2018-09-22T04:30:22.166Z,8.10
2018-09-22T04:30:53.259Z,7.80
2018-09-22T04:31:24.427Z,7.85
2018-09-22T04:31:55.542Z,8.63
2018-09-22T04:32:26.648Z,8.28
2018-09-22T04:32:57.773Z,7.75
2018-09-22T04:33:28.898Z,8.35
2018-09-22T04:34:00.107Z,8.08
2018-09-22T04:34:31.224Z,7.62
2018-09-22T04:35:02.343Z,7.45
2018-09-22T04:35:33.506Z,7.47
2018-09-22T04:36:04.607Z,7.97
2018-09-22T04:36:35.722Z,7.70
2018-09-22T04:37:06.832Z,7.53
2018-09-22T04:37:37.937Z,9.73
2018-09-22T04:38:09.072Z,11.57
2018-09-22T04:38:40.178Z,10.10
2018-09-22T04:39:11.311Z,12.23
2018-09-22T04:39:42.484Z,11.35
2018-09-22T04:40:13.653Z,13.10
2018-09-22T04:40:44.746Z,11.85
2018-09-22T04:41:15.851Z,11.22
2018-09-22T04:41:46.971Z,11.48
2018-09-22T04:42:18.066Z,9.68
2018-09-22T04:42:49.153Z,10.30
2018-09-22T04:43:20.266Z,9.23
2018-09-22T04:43:51.357Z,8.93
2018-09-22T04:44:22.485Z,8.15
2018-09-22T04:44:53.588Z,8.20
2018-09-22T04:45:24.715Z,7.75
2018-09-22T04:45:55.880Z,7.45
2018-09-22T04:46:27.046Z,7.92
2018-09-22T04:46:58.147Z,8.00
2018-09-22T04:47:29.261Z,7.70
2018-09-22T04:48:00.368Z,7.92
2018-09-22T04:48:31.492Z,7.55
2018-09-22T04:49:02.605Z,7.92
2018-09-22T04:49:33.708Z,8.10
2018-09-22T04:50:04.875Z,8.30
2018-09-22T04:50:36.000Z,8.50
2018-09-22T04:51:07.202Z,7.75
2018-09-22T04:51:38.388Z,8.63
2018-09-22T04:52:09.500Z,8.08
2018-09-22T04:52:40.618Z,8.65
2018-09-22T04:53:11.780Z,8.20
2018-09-22T04:53:42.902Z,8.73
2018-09-22T04:54:14.014Z,8.40
2018-09-22T04:54:45.116Z,8.80
2018-09-22T04:55:16.302Z,8.58
2018-09-22T04:55:47.423Z,8.75
2018-09-22T04:56:18.512Z,9.33
2018-09-22T04:56:49.643Z,8.80
2018-09-22T04:57:20.803Z,9.25
2018-09-22T04:57:51.964Z,9.00
2018-09-22T04:58:23.133Z,8.35
2018-09-22T04:58:54.258Z,8.68
2018-09-22T04:59:25.362Z,8.60
2018-09-22T04:59:56.464Z,8.13
2018-09-22T05:00:27.636Z,8.05
2018-09-22T05:00:58.804Z,8.30
2018-09-22T05:01:29.968Z,7.55
2018-09-22T05:02:01.139Z,7.33
2018-09-22T05:02:32.280Z,7.75
2018-09-22T05:03:03.401Z,8.10
2018-09-22T05:03:34.523Z,7.58
2018-09-22T05:04:05.701Z,7.95
2018-09-22T05:04:36.802Z,8.28
2018-09-22T05:05:07.971Z,8.05
2018-09-22T05:05:39.107Z,7.95
2018-09-22T05:06:10.218Z,7.40
2018-09-22T05:06:41.386Z,8.40
2018-09-22T05:07:12.528Z,7.78
2018-09-22T05:07:43.654Z,8.05
2018-09-22T05:08:14.761Z,8.38
2018-09-22T05:08:45.891Z,8.13
2018-09-22T05:09:17.205Z,7.95
2018-09-22T05:09:48.318Z,8.15
2018-09-22T05:10:19.428Z,8.10
2018-09-22T05:10:50.626Z,7.60
2018-09-22T05:11:21.797Z,8.00
2018-09-22T05:11:53.004Z,8.03
2018-09-22T05:12:25.265Z,7.97
2018-09-22T05:12:56.436Z,7.80
2018-09-22T05:13:27.707Z,7.83
2018-09-22T05:13:58.831Z,8.38
2018-09-22T05:14:29.941Z,7.90
2018-09-22T05:15:01.047Z,7.30
2018-09-22T05:15:32.209Z,7.60
2018-09-22T05:16:03.320Z,7.92
2018-09-22T05:16:34.421Z,7.47
2018-09-22T05:17:05.598Z,8.30
2018-09-22T05:17:36.690Z,8.80
2018-09-22T05:18:07.891Z,8.08
2018-09-22T05:18:38.992Z,8.35
2018-09-22T05:19:10.103Z,8.13
2018-09-22T05:19:41.211Z,8.15
2018-09-22T05:20:12.353Z,7.65
2018-09-22T05:20:43.454Z,8.30
2018-09-22T05:21:14.558Z,8.10
2018-09-22T05:21:45.655Z,8.45
2018-09-22T05:22:16.768Z,7.95
2018-09-22T05:22:47.877Z,7.75
2018-09-22T05:23:19.053Z,8.53
2018-09-22T05:23:50.184Z,8.20
2018-09-22T05:24:21.337Z,7.97
2018-09-22T05:24:52.553Z,7.83
2018-09-22T05:25:23.625Z,8.03
2018-09-22T05:25:54.732Z,7.92
2018-09-22T05:26:25.828Z,7.62
2018-09-22T05:26:57.012Z,8.35
2018-09-22T05:27:28.161Z,7.85
2018-09-22T05:27:59.277Z,7.47
2018-09-22T05:28:30.397Z,7.72
2018-09-22T05:29:01.567Z,8.15
2018-09-22T05:29:32.673Z,8.08
2018-09-22T05:30:03.791Z,8.33
2018-09-22T05:30:34.904Z,7.95
2018-09-22T05:31:06.023Z,7.78
2018-09-22T05:31:37.131Z,7.90
2018-09-22T05:32:08.240Z,7.78
2018-09-22T05:32:39.483Z,7.87
2018-09-22T05:33:10.577Z,7.90
2018-09-22T05:33:41.694Z,8.03
2018-09-22T05:34:12.816Z,8.13
2018-09-22T05:34:43.942Z,7.60
2018-09-22T05:35:15.040Z,8.13
2018-09-22T05:35:46.138Z,7.92
2018-09-22T05:36:17.236Z,8.15
2018-09-22T05:36:48.355Z,8.20
2018-09-22T05:37:19.468Z,8.10
2018-09-22T05:37:50.624Z,8.80
2018-09-22T05:38:21.742Z,7.50
2018-09-22T05:38:53.839Z,8.05
2018-09-22T05:39:25.023Z,8.48
2018-09-22T05:39:56.218Z,9.08
2018-09-22T05:40:27.309Z,9.43
2018-09-22T05:40:58.418Z,15.38
2018-09-22T05:41:29.568Z,10.90
2018-09-22T05:42:00.717Z,10.60
2018-09-22T05:42:31.890Z,10.15
2018-09-22T05:43:03.042Z,10.50
2018-09-22T05:43:34.289Z,8.63
2018-09-22T05:44:05.402Z,8.80
2018-09-22T05:44:36.565Z,10.03
2018-09-22T05:45:07.701Z,8.60
2018-09-22T05:45:38.892Z,9.13
2018-09-22T05:46:10.067Z,8.75
2018-09-22T05:46:41.236Z,8.30
2018-09-22T05:47:12.386Z,8.83
2018-09-22T05:47:43.569Z,8.10
2018-09-22T05:48:14.791Z,8.13
2018-09-22T05:48:45.946Z,8.45
2018-09-22T05:49:17.069Z,8.23
2018-09-22T05:49:48.176Z,8.58
2018-09-22T05:50:19.384Z,8.55
2018-09-22T05:50:50.551Z,8.23
2018-09-22T05:51:21.687Z,8.38
2018-09-22T05:51:52.822Z,8.60
2018-09-22T05:52:23.992Z,8.75
2018-09-22T05:52:55.110Z,8.75
2018-09-22T05:53:26.282Z,8.05
2018-09-22T05:53:57.395Z,8.33
2018-09-22T05:54:28.491Z,8.93
2018-09-22T05:54:59.606Z,8.78
2018-09-22T05:55:30.735Z,8.53
2018-09-22T05:56:01.843Z,9.28
2018-09-22T05:56:33.010Z,8.83
2018-09-22T05:57:04.114Z,9.13
2018-09-22T05:57:35.222Z,8.33
2018-09-22T05:58:06.404Z,9.03
2018-09-22T05:58:37.513Z,8.78
2018-09-22T05:59:08.821Z,9.20
2018-09-22T05:59:40.016Z,8.90
2018-09-22T06:00:11.247Z,9.73
2018-09-22T06:00:42.346Z,8.95
2018-09-22T06:01:13.495Z,9.20
2018-09-22T06:01:44.602Z,8.55
2018-09-22T06:02:15.699Z,8.75
2018-09-22T06:02:46.806Z,8.68
2018-09-22T06:03:18.081Z,8.90
2018-09-22T06:03:49.393Z,9.48
2018-09-22T06:04:20.462Z,9.08
2018-09-22T06:04:51.574Z,8.83
2018-09-22T06:05:22.739Z,8.93
2018-09-22T06:05:53.838Z,8.88
2018-09-22T06:06:25.027Z,9.30
2018-09-22T06:06:56.145Z,8.23
2018-09-22T06:07:27.257Z,8.43
2018-09-22T06:07:58.419Z,8.30
2018-09-22T06:08:29.542Z,8.03
2018-09-22T06:09:00.695Z,7.70
2018-09-22T06:09:31.833Z,8.28
2018-09-22T06:10:03.004Z,8.25
2018-09-22T06:10:34.146Z,7.95
2018-09-22T06:11:05.254Z,7.90
2018-09-22T06:11:36.379Z,7.85
2018-09-22T06:12:07.519Z,7.87
2018-09-22T06:12:38.645Z,7.85
2018-09-22T06:13:09.962Z,7.85
2018-09-22T06:13:41.107Z,7.47
2018-09-22T06:14:12.514Z,7.72
2018-09-22T06:14:43.701Z,7.72
2018-09-22T06:15:14.873Z,7.90
2018-09-22T06:15:46.001Z,7.55
2018-09-22T06:16:17.201Z,7.53
2018-09-22T06:16:48.367Z,7.37
2018-09-22T06:17:19.539Z,7.30
2018-09-22T06:17:50.661Z,7.90
2018-09-22T06:18:21.766Z,7.75
2018-09-22T06:18:52.931Z,7.17
2018-09-22T06:19:24.046Z,7.80
2018-09-22T06:19:55.154Z,7.70
2018-09-22T06:20:26.303Z,7.33
2018-09-22T06:20:57.422Z,7.40
2018-09-22T06:21:28.584Z,7.00
2018-09-22T06:21:59.764Z,7.05
2018-09-22T06:22:30.864Z,7.25
2018-09-22T06:23:02.257Z,6.55
2018-09-22T06:23:33.469Z,7.15
2018-09-22T06:24:04.509Z,6.70
2018-09-22T06:24:35.657Z,7.08
2018-09-22T06:25:06.766Z,6.85
2018-09-22T06:25:38.021Z,6.83
2018-09-22T06:26:09.155Z,6.85
2018-09-22T06:26:40.319Z,6.75
2018-09-22T06:27:11.503Z,7.03
2018-09-22T06:27:42.647Z,7.30
2018-09-22T06:28:13.755Z,5.97
2018-09-22T06:28:44.987Z,6.50
2018-09-22T06:29:16.131Z,6.37
2018-09-22T06:29:47.249Z,6.97
2018-09-22T06:30:18.409Z,6.92
2018-09-22T06:30:49.523Z,7.83
2018-09-22T06:31:20.636Z,6.97
2018-09-22T06:31:51.756Z,7.35
2018-09-22T06:32:22.894Z,7.20
2018-09-22T06:32:53.999Z,7.08
2018-09-22T06:33:25.103Z,7.55
2018-09-22T06:33:56.393Z,7.53
2018-09-22T06:34:27.523Z,7.62
2018-09-22T06:34:58.663Z,6.95
2018-09-22T06:35:29.851Z,7.33
2018-09-22T06:36:01.021Z,7.65
2018-09-22T06:36:32.130Z,8.00
2018-09-22T06:37:03.313Z,9.30
2018-09-22T06:37:34.544Z,7.70
2018-09-22T06:38:05.620Z,7.40
2018-09-22T06:38:36.727Z,11.88
2018-09-22T06:39:07.860Z,8.10
2018-09-22T06:39:38.958Z,6.83
2018-09-22T06:40:10.075Z,6.80
2018-09-22T06:40:41.209Z,7.33
2018-09-22T06:41:12.371Z,7.20
2018-09-22T06:41:43.523Z,7.15
2018-09-22T06:42:14.628Z,6.62
2018-09-22T06:42:45.750Z,6.93
2018-09-22T06:43:16.922Z,6.75
2018-09-22T06:43:48.037Z,6.60
2018-09-22T06:44:19.211Z,6.92
2018-09-22T06:44:50.345Z,6.50
2018-09-22T06:45:21.467Z,6.75
2018-09-22T06:45:52.758Z,7.10
2018-09-22T06:46:23.872Z,7.27
2018-09-22T06:46:55.002Z,6.70
2018-09-22T06:47:26.112Z,6.78
2018-09-22T06:47:57.310Z,7.00
2018-09-22T06:48:28.466Z,7.40
2018-09-22T06:48:59.635Z,6.45
2018-09-22T06:49:30.760Z,6.65
2018-09-22T06:50:01.894Z,6.97